createdAt,value
2023-02-03T00:04:19.593Z,97.55
2023-02-03T00:09:22.330Z,88.75
2023-02-03T00:14:25.211Z,117.80
2023-02-03T00:19:27.890Z,109.05
2023-02-03T00:24:30.781Z,99.10
2023-02-03T00:29:33.687Z,92.78
2023-02-03T00:34:36.308Z,102.13
2023-02-03T00:39:39.353Z,92.70
2023-02-03T00:44:42.075Z,81.95
2023-02-03T00:49:44.754Z,88.82
2023-02-03T00:54:47.469Z,101.10
2023-02-03T00:59:50.124Z,71.75
2023-02-03T01:04:52.781Z,93.10
2023-02-03T01:09:55.552Z,62.75
2023-02-03T01:14:58.254Z,79.32
2023-02-03T01:20:00.932Z,95.22
2023-02-03T01:25:05.531Z,89.88
2023-02-03T01:30:08.709Z,82.95
2023-02-03T01:35:11.536Z,76.85
2023-02-03T01:40:14.199Z,75.07
2023-02-03T01:45:19.983Z,81.63
2023-02-03T01:50:33.812Z,103.82
2023-02-03T01:55:41.011Z,128.85
2023-02-03T02:00:44.368Z,127.25
2023-02-03T02:06:01.472Z,121.03
2023-02-03T02:11:04.884Z,134.35
2023-02-03T02:16:14.977Z,80.45
2023-02-03T02:21:45.216Z,136.45
2023-02-03T02:26:57.149Z,145.52
2023-02-03T02:32:11.935Z,180.90
2023-02-03T02:37:26.446Z,155.00
2023-02-03T02:42:39.137Z,169.85
2023-02-03T02:47:42.011Z,158.93
2023-02-03T02:52:46.712Z,152.60
2023-02-03T02:57:50.275Z,126.47
2023-02-03T03:02:57.874Z,142.48
2023-02-03T03:08:03.237Z,91.13
2023-02-03T03:13:09.108Z,68.30
2023-02-03T03:18:21.535Z,81.10
2023-02-03T03:28:52.373Z,65.78
2023-02-03T03:33:55.157Z,60.95
2023-02-03T03:39:04.948Z,78.53
2023-02-03T03:44:11.714Z,69.13
2023-02-03T03:49:14.861Z,83.30
2023-02-03T03:54:19.709Z,67.57
2023-02-03T03:59:23.255Z,55.30
2023-02-03T04:04:26.509Z,71.75
2023-02-03T04:09:29.161Z,77.55
2023-02-03T04:14:38.297Z,71.75
2023-02-03T04:19:41.136Z,53.00
2023-02-03T04:34:50.622Z,73.07
2023-02-03T04:44:56.494Z,87.20
2023-02-03T04:49:59.243Z,87.78
2023-02-03T04:55:02.046Z,114.93
2023-02-03T05:00:06.136Z,102.22
2023-02-03T05:05:08.892Z,100.43
2023-02-03T05:10:11.610Z,127.30
2023-02-03T05:15:15.047Z,127.28
2023-02-03T05:20:18.058Z,133.40
2023-02-03T05:25:20.854Z,136.20
2023-02-03T05:30:23.719Z,143.82
2023-02-03T05:35:26.417Z,114.45
2023-02-03T05:40:47.860Z,160.75
2023-02-03T05:45:50.581Z,169.35
2023-02-03T05:50:53.492Z,122.97
2023-02-03T05:55:56.177Z,179.20
2023-02-03T06:00:58.821Z,177.52
2023-02-03T06:06:01.680Z,224.05
2023-02-03T06:11:04.435Z,183.60
2023-02-03T06:16:07.612Z,244.38
2023-02-03T06:21:10.317Z,193.32
2023-02-03T06:26:13.388Z,229.57
2023-02-03T06:31:16.248Z,299.48
2023-02-03T06:36:19.046Z,203.32
2023-02-03T06:41:21.846Z,249.00
2023-02-03T06:46:28.563Z,282.70
2023-02-03T06:51:31.409Z,197.45
2023-02-03T06:56:34.041Z,152.40
2023-02-03T07:01:37.615Z,223.13
2023-02-03T07:06:40.398Z,218.52
2023-02-03T07:11:43.170Z,216.93
2023-02-03T07:16:45.875Z,202.55
2023-02-03T07:21:48.694Z,190.38
2023-02-03T07:26:51.369Z,211.57
2023-02-03T07:31:54.284Z,218.83
2023-02-03T07:36:58.121Z,244.47
2023-02-03T07:42:00.690Z,193.38
2023-02-03T07:47:04.823Z,172.70
2023-02-03T07:52:15.076Z,157.37
2023-02-03T07:57:17.971Z,157.13
2023-02-03T08:02:20.671Z,155.35
2023-02-03T08:07:23.406Z,151.68
2023-02-03T08:12:26.370Z,128.18
2023-02-03T08:17:29.284Z,178.87
2023-02-03T08:22:31.920Z,149.95
2023-02-03T08:27:34.682Z,168.18
2023-02-03T08:32:37.328Z,145.00
2023-02-03T08:37:40.091Z,138.95
2023-02-03T08:42:42.778Z,112.78
2023-02-03T08:47:45.652Z,122.35
2023-02-03T08:52:48.361Z,94.80
2023-02-03T08:57:51.076Z,77.82
2023-02-03T09:02:53.721Z,64.88
2023-02-03T09:07:56.406Z,46.88
2023-02-03T09:12:59.040Z,44.03
2023-02-03T09:18:01.687Z,53.63
2023-02-03T09:23:04.449Z,40.45
2023-02-03T09:28:07.316Z,40.80
2023-02-03T09:33:10.491Z,29.80
2023-02-03T09:38:13.297Z,31.08
2023-02-03T09:43:43.500Z,38.45
2023-02-03T09:48:50.194Z,35.13
2023-02-03T09:54:06.806Z,48.22
2023-02-03T09:59:10.256Z,55.47
2023-02-03T10:04:31.127Z,38.93
2023-02-03T10:10:08.178Z,43.58
2023-02-03T10:15:10.825Z,46.75
2023-02-03T10:20:22.033Z,47.72
2023-02-03T10:25:38.216Z,48.50
2023-02-03T10:30:46.728Z,56.78
2023-02-03T10:35:53.491Z,46.88
2023-02-03T10:40:56.639Z,40.65
2023-02-03T10:46:00.200Z,34.22
2023-02-03T10:51:03.728Z,31.60
2023-02-03T10:56:16.256Z,31.13
2023-02-03T11:01:21.772Z,32.03
2023-02-03T11:06:25.400Z,40.50
2023-02-03T11:11:31.721Z,35.33
2023-02-03T11:16:37.341Z,31.55
2023-02-03T11:21:44.827Z,36.90
2023-02-03T11:26:51.863Z,40.80
2023-02-03T11:32:04.091Z,36.28
2023-02-03T11:37:42.292Z,36.10
2023-02-03T11:42:59.267Z,35.10
2023-02-03T11:48:03.371Z,21.67
2023-02-03T11:58:38.827Z,37.30
2023-02-03T12:04:02.928Z,48.40
2023-02-03T12:09:38.163Z,38.58
2023-02-03T12:14:59.611Z,26.83
2023-02-03T12:20:22.030Z,25.92
2023-02-03T12:25:49.350Z,43.75
2023-02-03T12:30:57.392Z,34.38
2023-02-03T12:36:10.293Z,44.92
2023-02-03T12:41:16.571Z,29.63
2023-02-03T12:46:31.865Z,38.42
2023-02-03T12:51:40.625Z,36.17
2023-02-03T12:56:44.666Z,45.40
2023-02-03T13:07:18.381Z,54.58
2023-02-03T13:12:27.871Z,40.53
2023-02-03T13:17:46.668Z,49.92
2023-02-03T13:22:49.299Z,47.88
2023-02-03T13:27:58.475Z,53.97
2023-02-03T13:33:30.914Z,63.90
2023-02-03T13:39:13.894Z,49.70
2023-02-03T13:44:20.118Z,61.05
2023-02-03T13:49:29.212Z,57.03
2023-02-03T13:54:39.446Z,54.67
2023-02-03T13:59:43.988Z,44.50
2023-02-03T14:04:46.754Z,45.05
2023-02-03T14:10:14.883Z,44.95
2023-02-03T14:15:32.584Z,33.95
2023-02-03T14:20:42.661Z,33.13
2023-02-03T14:26:05.760Z,34.72
2023-02-03T14:31:16.979Z,46.80
2023-02-03T14:36:31.967Z,48.08
2023-02-03T14:41:49.608Z,47.78
2023-02-03T14:46:53.752Z,60.30
2023-02-03T14:52:25.638Z,44.08
2023-02-03T14:57:40.188Z,41.20
2023-02-03T15:03:10.725Z,39.28
2023-02-03T15:08:33.554Z,45.30
2023-02-03T15:13:36.286Z,29.95
2023-02-03T15:18:41.161Z,39.70
2023-02-03T15:23:48.510Z,40.30
2023-02-03T15:28:59.101Z,44.72
2023-02-03T15:34:14.272Z,40.13
2023-02-03T15:39:39.142Z,37.15
2023-02-03T15:44:51.204Z,34.70
2023-02-03T15:50:02.400Z,38.63
2023-02-03T15:55:17.945Z,37.22
2023-02-03T16:00:38.651Z,41.70
2023-02-03T16:05:42.751Z,45.03
2023-02-03T16:10:45.494Z,39.70
2023-02-03T16:16:14.789Z,44.08
2023-02-03T16:21:29.686Z,46.42
2023-02-03T16:26:34.001Z,46.45
2023-02-03T16:32:00.900Z,44.63
2023-02-03T16:37:39.095Z,48.15
2023-02-03T16:43:00.684Z,44.33
2023-02-03T16:48:22.344Z,46.00
2023-02-03T16:53:32.987Z,48.80
2023-02-03T16:58:35.766Z,57.17
2023-02-03T17:03:40.108Z,56.17
2023-02-03T17:08:43.170Z,50.43
2023-02-03T17:13:46.997Z,63.42
2023-02-03T17:18:49.885Z,74.78
2023-02-03T17:23:52.725Z,73.10
2023-02-03T17:28:55.598Z,64.27
2023-02-03T17:33:58.695Z,65.87
2023-02-03T17:55:02.189Z,65.03
2023-02-03T18:05:14.977Z,60.92
2023-02-03T18:10:17.873Z,77.63
2023-02-03T18:15:20.745Z,65.47
2023-02-03T18:20:23.384Z,58.53
2023-02-03T18:25:25.998Z,54.53
2023-02-03T18:30:28.970Z,59.25
2023-02-03T18:35:33.781Z,53.58
2023-02-03T18:40:39.629Z,51.20
2023-02-03T18:45:42.340Z,57.58
2023-02-03T18:50:45.209Z,45.10
2023-02-03T18:55:47.849Z,52.17
2023-02-03T19:00:51.011Z,47.77
2023-02-03T19:05:54.590Z,37.00
2023-02-03T19:10:57.188Z,49.65
2023-02-03T19:16:02.111Z,49.77
2023-02-03T19:21:05.085Z,42.05
2023-02-03T19:26:08.338Z,46.60
2023-02-03T19:31:17.924Z,58.35
2023-02-03T19:36:20.907Z,45.42
2023-02-03T19:41:25.970Z,42.50
2023-02-03T19:46:32.906Z,57.83
2023-02-03T19:51:35.926Z,57.72
2023-02-03T19:56:39.037Z,46.95
2023-02-03T20:01:42.751Z,37.53
2023-02-03T20:06:45.716Z,47.50
2023-02-03T20:11:48.418Z,47.97
2023-02-03T20:16:51.482Z,40.67
2023-02-03T20:21:54.206Z,57.73
2023-02-03T20:26:56.923Z,58.78
2023-02-03T20:31:59.617Z,58.57
2023-02-03T20:37:02.323Z,49.65
2023-02-03T20:42:18.728Z,37.03
2023-02-03T20:47:22.916Z,49.28
2023-02-03T20:52:25.627Z,55.58
2023-02-03T20:57:28.387Z,44.50
2023-02-03T21:02:53.915Z,74.95
2023-02-03T21:07:56.628Z,61.20
2023-02-03T21:12:59.321Z,60.80
2023-02-03T21:18:01.914Z,60.42
2023-02-03T21:23:07.385Z,68.95
2023-02-03T21:28:22.723Z,65.22
2023-02-03T21:33:29.467Z,66.30
2023-02-03T21:38:33.430Z,55.90
2023-02-03T21:43:36.697Z,60.38
2023-02-03T21:48:40.388Z,56.17
2023-02-03T21:53:54.869Z,58.47
2023-02-03T21:58:59.258Z,58.35
2023-02-03T22:04:04.181Z,57.67
2023-02-03T22:09:07.951Z,60.88
2023-02-03T22:14:10.637Z,69.53
2023-02-03T22:19:13.770Z,46.17
2023-02-03T22:24:16.434Z,56.10
2023-02-03T22:29:19.098Z,51.38
2023-02-03T22:34:23.391Z,53.15
2023-02-03T22:39:26.332Z,47.15
2023-02-03T22:44:28.982Z,29.87
2023-02-03T22:49:31.641Z,46.60
2023-02-03T22:54:35.465Z,51.22
2023-02-03T22:59:38.260Z,80.93
2023-02-03T23:04:41.050Z,59.43
2023-02-03T23:09:43.730Z,45.47
2023-02-03T23:14:46.356Z,66.15
2023-02-03T23:19:49.298Z,46.28
2023-02-03T23:24:51.910Z,55.47
2023-02-03T23:29:54.750Z,69.43
2023-02-03T23:35:16.101Z,62.13
2023-02-03T23:40:19.111Z,67.38
2023-02-03T23:45:21.756Z,61.50
2023-02-03T23:50:24.510Z,58.45
2023-02-03T23:55:27.272Z,54.93
